createdAt,value
2019-01-20T00:02:43.153Z,-2.90
2019-01-20T00:08:31.209Z,-3.00
2019-01-20T00:11:17.663Z,-3.00
2019-01-20T00:14:04.131Z,-3.00
2019-01-20T00:16:43.902Z,-3.00
2019-01-20T00:19:30.224Z,-3.10
2019-01-20T00:22:10.000Z,-3.10
2019-01-20T00:24:36.556Z,-3.10
2019-01-20T00:27:22.889Z,-3.00
2019-01-20T00:30:07.827Z,-3.00
2019-01-20T00:32:34.510Z,-3.00
2019-01-20T00:35:00.978Z,-3.10
2019-01-20T00:37:47.221Z,-3.10
2019-01-20T00:43:23.862Z,-3.10
2019-01-20T00:45:50.327Z,-3.20
2019-01-20T00:48:16.817Z,-3.20
2019-01-20T00:51:18.754Z,-3.30
2019-01-20T00:56:51.767Z,-3.30
2019-01-20T00:59:18.282Z,-3.30
2019-01-20T01:02:04.880Z,-3.40
2019-01-20T01:04:31.409Z,-3.40
2019-01-20T01:06:57.937Z,-3.40
2019-01-20T01:09:44.191Z,-3.50
2019-01-20T01:12:23.918Z,-3.40
2019-01-20T01:15:10.383Z,-3.50
2019-01-20T01:17:50.087Z,-3.50
2019-01-20T01:20:57.980Z,-3.50
2019-01-20T01:23:37.914Z,-3.50
2019-01-20T01:26:24.119Z,-3.50
2019-01-20T01:28:50.685Z,-3.60
2019-01-20T01:31:36.963Z,-3.60
2019-01-20T01:34:17.365Z,-3.60
2019-01-20T01:37:03.743Z,-3.60
2019-01-20T01:39:45.218Z,-3.60
2019-01-20T01:42:31.602Z,-3.60
2019-01-20T01:44:58.108Z,-3.70
2019-01-20T01:47:24.660Z,-3.60
2019-01-20T01:49:51.198Z,-3.60
2019-01-20T01:52:17.965Z,-3.70
2019-01-20T01:55:05.211Z,-3.70
2019-01-20T01:57:51.940Z,-3.70
2019-01-20T02:00:31.842Z,-3.70
2019-01-20T02:03:20.093Z,-3.70
2019-01-20T02:06:06.437Z,-3.80
2019-01-20T02:08:46.110Z,-3.80
2019-01-20T02:11:12.627Z,-3.80
2019-01-20T02:13:39.214Z,-3.80
2019-01-20T02:16:06.597Z,-3.80
2019-01-20T02:18:34.052Z,-3.80
2019-01-20T02:21:01.468Z,-3.80
2019-01-20T02:23:28.877Z,-3.80
2019-01-20T02:25:56.482Z,-3.80
2019-01-20T02:28:23.996Z,-3.80
2019-01-20T02:30:51.407Z,-3.80
2019-01-20T02:33:18.829Z,-3.80
2019-01-20T02:35:46.309Z,-3.80
2019-01-20T02:38:12.892Z,-3.80
2019-01-20T02:40:39.454Z,-3.90
2019-01-20T02:43:05.991Z,-3.90
2019-01-20T02:45:32.712Z,-3.90
2019-01-20T02:47:59.247Z,-3.90
2019-01-20T02:50:25.871Z,-3.90
2019-01-20T02:52:52.388Z,-3.90
2019-01-20T02:55:19.019Z,-4.00
2019-01-20T02:57:45.507Z,-4.00
2019-01-20T03:02:53.802Z,-4.00
2019-01-20T03:05:40.136Z,-4.00
2019-01-20T03:08:20.102Z,-4.00
2019-01-20T03:11:06.334Z,-4.00
2019-01-20T03:13:45.967Z,-4.00
2019-01-20T03:16:12.452Z,-4.00
2019-01-20T03:18:39.148Z,-4.00
2019-01-20T03:21:05.813Z,-4.10
2019-01-20T03:23:52.173Z,-4.10
2019-01-20T03:26:38.553Z,-4.10
2019-01-20T03:29:18.618Z,-4.10
2019-01-20T03:32:04.885Z,-4.10
2019-01-20T03:34:44.696Z,-4.20
2019-01-20T03:43:09.858Z,-4.20
2019-01-20T03:45:50.351Z,-4.20
2019-01-20T03:48:16.835Z,-4.20
2019-01-20T03:51:03.204Z,-4.20
2019-01-20T03:53:49.455Z,-4.10
2019-01-20T03:56:29.783Z,-4.20
2019-01-20T03:59:16.120Z,-4.20
2019-01-20T04:01:55.848Z,-4.20
2019-01-20T04:04:22.443Z,-4.30
2019-01-20T04:07:08.720Z,-4.20
2019-01-20T04:09:35.328Z,-4.30
2019-01-20T04:12:21.593Z,-4.30
2019-01-20T04:15:08.503Z,-4.30
2019-01-20T04:17:34.996Z,-4.30
2019-01-20T04:20:21.323Z,-4.40
2019-01-20T04:23:02.060Z,-4.40
2019-01-20T04:25:28.621Z,-4.40
2019-01-20T04:28:14.911Z,-4.40
2019-01-20T04:30:54.807Z,-4.40
2019-01-20T04:33:21.325Z,-4.40
2019-01-20T04:36:07.692Z,-4.50
2019-01-20T04:38:53.934Z,-4.50
2019-01-20T04:41:34.058Z,-4.50
2019-01-20T04:44:00.529Z,-4.50
2019-01-20T04:46:40.378Z,-4.50
2019-01-20T04:49:26.749Z,-4.50
2019-01-20T04:51:53.291Z,-4.60
2019-01-20T04:54:39.673Z,-4.50
2019-01-20T04:57:26.416Z,-4.60
2019-01-20T04:59:54.079Z,-4.60
2019-01-20T05:02:20.693Z,-4.60
2019-01-20T05:04:47.244Z,-4.60
2019-01-20T05:07:13.808Z,-4.60
2019-01-20T05:09:40.471Z,-4.60
2019-01-20T05:12:07.108Z,-4.60
2019-01-20T05:14:53.458Z,-4.60
2019-01-20T05:17:33.795Z,-4.60
2019-01-20T05:20:20.073Z,-4.60
2019-01-20T05:22:46.815Z,-4.60
2019-01-20T05:25:52.992Z,-4.60
2019-01-20T05:28:19.529Z,-4.60
2019-01-20T05:31:05.771Z,-4.70
2019-01-20T05:33:32.260Z,-4.70
2019-01-20T05:36:18.626Z,-4.70
2019-01-20T05:39:05.394Z,-4.70
2019-01-20T05:41:45.211Z,-4.80
2019-01-20T05:44:31.479Z,-4.80
2019-01-20T05:46:58.079Z,-4.80
2019-01-20T05:49:24.587Z,-4.80
2019-01-20T05:52:10.836Z,-4.80
2019-01-20T05:54:37.396Z,-4.80
2019-01-20T05:57:04.007Z,-4.80
2019-01-20T05:59:30.626Z,-4.90
2019-01-20T06:01:57.218Z,-4.90
2019-01-20T06:04:23.638Z,-4.90
2019-01-20T06:06:50.131Z,-4.90
2019-01-20T06:09:36.536Z,-4.90
2019-01-20T06:15:09.256Z,-4.90
2019-01-20T06:17:35.786Z,-4.90
2019-01-20T06:20:22.300Z,-4.90
2019-01-20T06:23:08.646Z,-4.90
2019-01-20T06:25:48.926Z,-4.90
2019-01-20T06:28:15.541Z,-4.90
2019-01-20T06:31:02.028Z,-4.90
2019-01-20T06:33:42.285Z,-4.90
2019-01-20T06:36:28.686Z,-4.90
2019-01-20T06:38:55.314Z,-4.90
2019-01-20T06:44:40.506Z,-4.90
2019-01-20T06:47:07.045Z,-5.00
2019-01-20T06:49:33.622Z,-5.00
2019-01-20T06:52:19.905Z,-5.00
2019-01-20T06:55:07.251Z,-5.00
2019-01-20T06:57:46.886Z,-5.00
2019-01-20T07:00:34.454Z,-5.10
2019-01-20T07:03:14.107Z,-5.00
2019-01-20T07:05:40.629Z,-5.00
2019-01-20T07:08:07.232Z,-5.00
2019-01-20T07:10:33.835Z,-5.00
2019-01-20T07:13:00.462Z,-5.10
2019-01-20T07:18:10.803Z,-5.10
2019-01-20T07:20:57.129Z,-5.10
2019-01-20T07:23:23.710Z,-5.10
2019-01-20T07:26:10.070Z,-5.10
2019-01-20T07:28:56.365Z,-5.10
2019-01-20T07:31:22.839Z,-5.10
2019-01-20T07:33:49.331Z,-5.10
2019-01-20T07:36:35.736Z,-5.10
2019-01-20T07:39:22.685Z,-5.10
2019-01-20T07:42:02.373Z,-5.10
2019-01-20T07:44:49.073Z,-5.10
2019-01-20T07:47:28.658Z,-5.20
2019-01-20T07:49:55.441Z,-5.20
2019-01-20T07:52:22.391Z,-5.10
2019-01-20T07:55:08.955Z,-5.10
2019-01-20T07:57:35.546Z,-5.10
2019-01-20T08:00:22.997Z,-5.10
2019-01-20T08:02:49.585Z,-5.10
2019-01-20T08:05:36.053Z,-5.10
2019-01-20T08:08:22.627Z,-5.10
2019-01-20T08:11:03.169Z,-5.10
2019-01-20T08:13:49.507Z,-5.10
2019-01-20T08:16:16.072Z,-5.10
2019-01-20T08:19:02.753Z,-5.00
2019-01-20T08:21:49.012Z,-5.00
2019-01-20T08:24:29.181Z,-5.00
2019-01-20T08:26:55.796Z,-5.00
2019-01-20T08:29:22.475Z,-5.00
2019-01-20T08:31:48.922Z,-4.90
2019-01-20T08:34:15.287Z,-4.90
2019-01-20T08:36:41.917Z,-4.90
2019-01-20T08:39:28.597Z,-4.90
2019-01-20T08:41:55.280Z,-4.90
2019-01-20T08:48:03.724Z,-4.80
2019-01-20T08:50:44.453Z,-4.80
2019-01-20T08:53:33.138Z,-4.90
2019-01-20T08:55:59.676Z,-4.90
2019-01-20T08:59:07.646Z,-4.90
2019-01-20T09:01:54.397Z,-4.90
2019-01-20T09:04:42.520Z,-4.90
2019-01-20T09:07:28.787Z,-4.90
2019-01-20T09:10:10.743Z,-4.90
2019-01-20T09:16:03.382Z,-4.80
2019-01-20T09:18:49.600Z,-4.80
2019-01-20T09:21:16.153Z,-4.80
2019-01-20T09:24:02.519Z,-4.70
2019-01-20T09:26:29.069Z,-4.70
2019-01-20T09:29:15.323Z,-4.70
2019-01-20T09:32:01.586Z,-4.70
2019-01-20T09:34:28.178Z,-4.70
2019-01-20T09:36:54.665Z,-4.70
2019-01-20T09:39:40.900Z,-4.70
2019-01-20T09:42:07.570Z,-4.70
2019-01-20T09:44:53.940Z,-4.60
2019-01-20T09:47:33.854Z,-4.60
2019-01-20T09:50:20.143Z,-4.60
2019-01-20T09:53:00.319Z,-4.60
2019-01-20T09:55:46.554Z,-4.60
2019-01-20T09:58:26.526Z,-4.60
2019-01-20T10:01:12.909Z,-4.60
2019-01-20T10:03:39.530Z,-4.50
2019-01-20T10:06:06.027Z,-4.50
2019-01-20T10:08:52.273Z,-4.50
2019-01-20T10:11:32.275Z,-4.50
2019-01-20T10:13:58.770Z,-4.40
2019-01-20T10:16:25.263Z,-4.50
2019-01-20T10:19:11.690Z,-4.50
2019-01-20T10:21:57.935Z,-4.50
2019-01-20T10:24:44.274Z,-4.50
2019-01-20T10:27:23.847Z,-4.50
2019-01-20T10:30:30.013Z,-4.50
2019-01-20T10:33:09.571Z,-4.40
2019-01-20T10:38:37.419Z,-4.40
2019-01-20T10:41:24.860Z,-4.30
2019-01-20T10:43:51.322Z,-4.30
2019-01-20T10:46:37.599Z,-4.30
2019-01-20T10:49:23.890Z,-4.30
2019-01-20T10:51:50.439Z,-4.10
2019-01-20T10:54:36.815Z,-4.10
2019-01-20T10:57:03.339Z,-4.10
2019-01-20T10:59:29.827Z,-4.10
2019-01-20T11:02:16.089Z,-4.10
2019-01-20T11:04:57.532Z,-4.10
2019-01-20T11:07:43.959Z,-4.10
2019-01-20T11:10:24.023Z,-4.10
2019-01-20T11:13:03.950Z,-4.10
2019-01-20T11:15:30.462Z,-4.00
2019-01-20T11:21:16.090Z,-4.00
2019-01-20T11:23:42.802Z,-3.90
2019-01-20T11:26:09.432Z,-3.90
2019-01-20T11:28:55.791Z,-3.90
2019-01-20T11:31:35.894Z,-3.80
2019-01-20T11:34:02.678Z,-3.90
2019-01-20T11:36:48.935Z,-3.80
2019-01-20T11:39:35.353Z,-3.80
2019-01-20T11:42:15.117Z,-3.80
2019-01-20T11:45:01.371Z,-3.80
2019-01-20T11:47:42.029Z,-3.80
2019-01-20T11:50:44.073Z,-3.70
2019-01-20T11:53:24.562Z,-3.70
2019-01-20T11:55:51.128Z,-3.80
2019-01-20T11:58:37.500Z,-3.60
2019-01-20T12:01:17.416Z,-3.60
2019-01-20T12:04:03.710Z,-3.60
2019-01-20T12:06:43.608Z,-3.60
2019-01-20T12:09:29.892Z,-3.60
2019-01-20T12:12:09.722Z,-3.60
2019-01-20T12:14:56.020Z,-3.60
2019-01-20T12:17:42.340Z,-3.60
2019-01-20T12:20:28.727Z,-3.60
2019-01-20T12:22:55.246Z,-3.60
2019-01-20T12:25:41.590Z,-3.60
2019-01-20T12:28:28.087Z,-3.50
2019-01-20T12:30:54.546Z,-3.50
2019-01-20T12:33:40.944Z,-3.50
2019-01-20T12:36:07.592Z,-3.50
2019-01-20T12:38:34.232Z,-3.60
2019-01-20T12:41:20.508Z,-3.60
2019-01-20T12:43:47.061Z,-3.50
2019-01-20T12:46:13.689Z,-3.60
2019-01-20T12:49:00.197Z,-3.60
2019-01-20T12:51:28.649Z,-3.60
2019-01-20T12:53:55.479Z,-3.60
2019-01-20T12:56:41.738Z,-3.60
2019-01-20T12:59:08.294Z,-3.60
2019-01-20T13:01:54.743Z,-3.50
2019-01-20T13:04:34.582Z,-3.60
2019-01-20T13:07:20.956Z,-3.60
2019-01-20T13:10:07.255Z,-3.60
2019-01-20T13:12:47.538Z,-3.60
2019-01-20T13:15:33.939Z,-3.60
2019-01-20T13:18:00.396Z,-3.60
2019-01-20T13:20:27.177Z,-3.60
2019-01-20T13:22:53.925Z,-3.70
2019-01-20T13:25:41.993Z,-3.70
2019-01-20T13:28:28.392Z,-3.70
2019-01-20T13:31:08.575Z,-3.60
2019-01-20T13:33:54.874Z,-3.70
2019-01-20T13:41:45.700Z,-3.70
2019-01-20T13:44:31.927Z,-3.80
2019-01-20T13:47:11.487Z,-3.80
2019-01-20T13:49:57.952Z,-3.80
2019-01-20T13:52:37.593Z,-3.80
2019-01-20T13:55:39.456Z,-3.80
2019-01-20T13:58:06.090Z,-3.80
2019-01-20T14:00:52.901Z,-3.90
2019-01-20T14:03:33.218Z,-3.90
2019-01-20T14:06:19.477Z,-3.90
2019-01-20T14:09:07.561Z,-3.90
2019-01-20T14:11:45.582Z,-3.90
2019-01-20T14:14:31.898Z,-3.90
2019-01-20T14:17:11.870Z,-3.90
2019-01-20T14:22:57.192Z,-3.90
2019-01-20T14:25:58.717Z,-4.00
2019-01-20T14:28:38.385Z,-3.90
2019-01-20T14:31:24.929Z,-4.00
2019-01-20T14:34:11.173Z,-4.00
2019-01-20T14:36:50.670Z,-4.00
2019-01-20T14:39:36.829Z,-4.00
2019-01-20T14:42:16.935Z,-4.00
2019-01-20T14:45:15.768Z,-4.10
2019-01-20T14:47:56.067Z,-4.10
2019-01-20T14:50:42.429Z,-4.10
2019-01-20T14:53:22.155Z,-4.10
2019-01-20T14:56:08.442Z,-4.20
2019-01-20T14:58:50.487Z,-4.20
2019-01-20T15:01:36.818Z,-4.20
2019-01-20T15:04:16.892Z,-4.20
2019-01-20T15:07:03.119Z,-4.20
2019-01-20T15:09:29.662Z,-4.30
2019-01-20T15:12:15.921Z,-4.30
2019-01-20T15:14:56.145Z,-4.30
2019-01-20T15:17:22.707Z,-4.30
2019-01-20T15:20:09.961Z,-4.30
2019-01-20T15:22:50.350Z,-4.30
2019-01-20T15:25:36.598Z,-4.30
2019-01-20T15:33:20.586Z,-4.30
2019-01-20T15:36:06.959Z,-4.40
2019-01-20T15:38:33.568Z,-4.30
2019-01-20T15:41:19.861Z,-4.30
2019-01-20T15:43:59.495Z,-4.40
2019-01-20T15:46:45.762Z,-4.30
2019-01-20T15:49:26.023Z,-4.40
2019-01-20T15:57:32.383Z,-4.20
2019-01-20T16:00:40.334Z,-4.30
2019-01-20T16:03:18.041Z,-4.40
2019-01-20T16:05:57.718Z,-4.40
2019-01-20T16:08:43.967Z,-4.40
2019-01-20T16:11:23.835Z,-4.50
2019-01-20T16:14:03.968Z,-4.50
2019-01-20T16:16:50.243Z,-4.50
2019-01-20T16:19:36.480Z,-4.50
2019-01-20T16:22:03.111Z,-4.60
2019-01-20T16:24:49.424Z,-4.60
2019-01-20T16:27:35.758Z,-4.60
2019-01-20T16:30:17.480Z,-4.60
2019-01-20T16:36:02.100Z,-4.60
2019-01-20T16:38:28.594Z,-4.70
2019-01-20T16:41:14.891Z,-4.80
2019-01-20T16:43:55.140Z,-4.80
2019-01-20T16:46:41.387Z,-4.80
2019-01-20T16:49:21.422Z,-4.80
2019-01-20T16:52:07.751Z,-4.80
2019-01-20T16:54:47.488Z,-4.80
2019-01-20T16:57:14.028Z,-4.80
2019-01-20T16:59:40.523Z,-4.80
2019-01-20T17:02:26.968Z,-4.80
2019-01-20T17:05:11.470Z,-4.80
2019-01-20T17:07:57.934Z,-4.90
2019-01-20T17:10:38.860Z,-4.80
2019-01-20T17:13:25.155Z,-4.90
2019-01-20T17:16:04.697Z,-4.90
2019-01-20T17:18:51.037Z,-4.90
2019-01-20T17:21:17.496Z,-4.90
2019-01-20T17:24:03.857Z,-4.90
2019-01-20T17:26:43.345Z,-5.00
2019-01-20T17:29:29.879Z,-5.00
2019-01-20T17:32:10.147Z,-5.00
2019-01-20T17:34:36.637Z,-5.00
2019-01-20T17:37:22.891Z,-5.00
2019-01-20T17:40:04.026Z,-5.00
2019-01-20T17:42:50.279Z,-5.10
2019-01-20T17:45:32.079Z,-5.00
2019-01-20T17:48:18.472Z,-5.00
2019-01-20T17:50:44.995Z,-5.00
2019-01-20T17:53:31.480Z,-5.10
2019-01-20T17:56:17.834Z,-5.10
2019-01-20T17:59:00.624Z,-5.10
2019-01-20T18:04:13.662Z,-5.10
2019-01-20T18:06:40.068Z,-5.10
2019-01-20T18:09:26.359Z,-5.10
2019-01-20T18:12:12.706Z,-5.10
2019-01-20T18:14:52.211Z,-5.10
2019-01-20T18:17:38.642Z,-5.10
2019-01-20T18:20:19.771Z,-5.10
2019-01-20T18:23:06.142Z,-5.10
2019-01-20T18:28:43.259Z,-5.20
2019-01-20T18:31:23.209Z,-5.30
2019-01-20T18:34:09.740Z,-5.10
2019-01-20T18:36:36.179Z,-5.30
2019-01-20T18:39:22.448Z,-5.30
2019-01-20T18:41:49.052Z,-5.20
2019-01-20T18:44:16.495Z,-5.30
2019-01-20T18:46:57.695Z,-5.30
2019-01-20T18:52:43.863Z,-5.30
2019-01-20T18:55:30.121Z,-5.30
2019-01-20T18:58:09.889Z,-5.30
2019-01-20T19:00:56.229Z,-5.30
2019-01-20T19:03:36.001Z,-5.30
2019-01-20T19:06:16.435Z,-5.20
2019-01-20T19:08:56.085Z,-5.30
2019-01-20T19:11:25.314Z,-5.30
2019-01-20T19:16:58.314Z,-5.30
2019-01-20T19:19:44.619Z,-5.40
2019-01-20T19:22:24.239Z,-5.40
2019-01-20T19:25:10.860Z,-5.30
2019-01-20T19:27:50.484Z,-5.40
2019-01-20T19:30:36.749Z,-5.40
2019-01-20T19:33:24.914Z,-5.40
2019-01-20T19:36:04.727Z,-5.40
2019-01-20T19:38:51.137Z,-5.40
2019-01-20T19:41:31.091Z,-5.40
2019-01-20T19:44:17.307Z,-5.40
2019-01-20T19:46:57.083Z,-5.40
2019-01-20T19:49:43.334Z,-5.40
2019-01-20T19:52:09.775Z,-5.40
2019-01-20T19:54:56.124Z,-5.40
2019-01-20T19:57:42.395Z,-5.40
2019-01-20T20:00:23.665Z,-5.40
2019-01-20T20:03:10.087Z,-5.40
2019-01-20T20:05:36.622Z,-5.40
2019-01-20T20:08:16.131Z,-5.40
2019-01-20T20:10:42.820Z,-5.40
2019-01-20T20:13:29.116Z,-5.40
2019-01-20T20:16:15.490Z,-5.40
2019-01-20T20:18:42.024Z,-5.40
2019-01-20T20:21:08.560Z,-5.50
2019-01-20T20:23:54.820Z,-5.50
2019-01-20T20:26:34.306Z,-5.50
2019-01-20T20:29:20.675Z,-5.40
2019-01-20T20:31:47.199Z,-5.50
2019-01-20T20:34:33.574Z,-5.50
2019-01-20T20:37:00.427Z,-5.50
2019-01-20T20:39:46.782Z,-5.50
2019-01-20T20:42:26.539Z,-5.50
2019-01-20T20:45:14.210Z,-5.60
2019-01-20T20:47:53.876Z,-5.50
2019-01-20T20:50:40.259Z,-5.50
2019-01-20T20:53:06.870Z,-5.50
2019-01-20T20:55:53.102Z,-5.60
2019-01-20T20:58:19.609Z,-5.60
2019-01-20T21:01:05.914Z,-5.60
2019-01-20T21:03:45.368Z,-5.60
2019-01-20T21:06:31.719Z,-5.60
2019-01-20T21:09:11.668Z,-5.50
2019-01-20T21:11:58.116Z,-5.60
2019-01-20T21:14:44.456Z,-5.60
2019-01-20T21:17:10.791Z,-5.60
2019-01-20T21:19:57.212Z,-5.70
2019-01-20T21:22:23.697Z,-5.70
2019-01-20T21:24:50.605Z,-5.70
2019-01-20T21:27:17.104Z,-5.70
2019-01-20T21:29:44.086Z,-5.80
2019-01-20T21:32:10.613Z,-5.80
2019-01-20T21:34:56.895Z,-5.80
2019-01-20T21:37:23.537Z,-5.70
2019-01-20T21:39:50.029Z,-5.80
2019-01-20T21:42:36.409Z,-5.80
2019-01-20T21:45:16.550Z,-5.80
2019-01-20T21:48:02.900Z,-5.90
2019-01-20T21:50:42.802Z,-5.80
2019-01-20T21:53:29.244Z,-5.80
2019-01-20T21:55:55.753Z,-5.90
2019-01-20T21:58:22.322Z,-5.90
2019-01-20T22:01:08.604Z,-5.90
2019-01-20T22:03:49.053Z,-5.90
2019-01-20T22:06:15.823Z,-5.90
2019-01-20T22:08:55.536Z,-5.90
2019-01-20T22:11:41.825Z,-6.00
2019-01-20T22:14:21.912Z,-5.90
2019-01-20T22:17:08.250Z,-5.90
2019-01-20T22:19:34.848Z,-6.00
2019-01-20T22:22:21.109Z,-6.00
2019-01-20T22:25:01.649Z,-6.00
2019-01-20T22:27:47.895Z,-6.00
2019-01-20T22:30:35.974Z,-6.00
2019-01-20T22:33:22.694Z,-6.00
2019-01-20T22:36:02.995Z,-6.10
2019-01-20T22:38:49.440Z,-6.10
2019-01-20T22:41:29.415Z,-6.10
2019-01-20T22:43:55.952Z,-6.00
2019-01-20T22:46:42.215Z,-6.10
2019-01-20T22:49:28.571Z,-6.10
2019-01-20T22:52:08.636Z,-6.10
2019-01-20T22:57:36.150Z,-6.20
2019-01-20T23:01:02.007Z,-6.10
2019-01-20T23:03:28.507Z,-6.20
2019-01-20T23:06:14.872Z,-6.20
2019-01-20T23:08:55.006Z,-6.30
2019-01-20T23:11:41.860Z,-6.30
2019-01-20T23:14:28.076Z,-6.30
2019-01-20T23:16:54.795Z,-6.30
2019-01-20T23:19:41.008Z,-6.30
2019-01-20T23:22:27.274Z,-6.30
2019-01-20T23:24:53.780Z,-6.30
2019-01-20T23:27:40.016Z,-6.30
2019-01-20T23:33:05.151Z,-6.30
2019-01-20T23:35:31.607Z,-6.30
2019-01-20T23:38:17.866Z,-6.40
2019-01-20T23:41:04.246Z,-6.40
2019-01-20T23:43:30.712Z,-6.40
2019-01-20T23:46:16.985Z,-6.40
2019-01-20T23:49:03.430Z,-6.40
2019-01-20T23:51:29.919Z,-6.40
2019-01-20T23:54:16.434Z,-6.40
2019-01-20T23:56:59.644Z,-6.40
2019-01-20T23:59:45.863Z,-6.40
